createdAt,value
2023-02-02T00:01:50.108Z,92.30
2023-02-02T00:04:19.876Z,92.20
2023-02-02T00:06:47.565Z,91.30
2023-02-02T00:09:18.651Z,91.10
2023-02-02T00:11:46.881Z,91.30
2023-02-02T00:14:14.118Z,91.80
2023-02-02T00:16:43.247Z,92.10
2023-02-02T00:19:17.048Z,92.00
2023-02-02T00:21:46.276Z,91.60
2023-02-02T00:24:15.084Z,91.60
2023-02-02T00:26:43.251Z,91.80
2023-02-02T00:29:15.893Z,91.80
2023-02-02T00:31:42.807Z,91.20
2023-02-02T00:34:16.659Z,91.60
2023-02-02T00:36:44.430Z,91.60
2023-02-02T00:39:18.660Z,91.80
2023-02-02T00:41:46.122Z,92.00
2023-02-02T00:44:31.963Z,91.80
2023-02-02T00:46:58.841Z,91.40
2023-02-02T00:49:25.594Z,91.30
2023-02-02T00:51:52.425Z,91.20
2023-02-02T00:54:19.215Z,91.00
2023-02-02T00:56:45.949Z,91.30
2023-02-02T00:59:12.788Z,91.50
2023-02-02T01:01:39.883Z,91.40
2023-02-02T01:04:08.372Z,91.50
2023-02-02T01:06:37.846Z,91.00
2023-02-02T01:09:04.823Z,91.00
2023-02-02T01:11:36.844Z,90.90
2023-02-02T01:14:03.923Z,90.80
2023-02-02T01:16:30.886Z,90.80
2023-02-02T01:18:59.107Z,90.80
2023-02-02T01:21:25.912Z,90.90
2023-02-02T01:23:52.717Z,90.40
2023-02-02T01:26:19.538Z,89.60
2023-02-02T01:28:46.976Z,88.60
2023-02-02T01:31:19.024Z,89.20
2023-02-02T01:33:47.328Z,90.00
2023-02-02T01:36:23.715Z,90.10
2023-02-02T01:38:51.043Z,89.90
2023-02-02T01:41:21.153Z,90.00
2023-02-02T01:44:01.075Z,90.20
2023-02-02T01:46:31.447Z,90.50
2023-02-02T01:49:07.379Z,90.50
2023-02-02T01:51:48.422Z,91.00
2023-02-02T01:54:32.938Z,90.90
2023-02-02T01:57:14.037Z,91.30
2023-02-02T01:59:41.754Z,91.80
2023-02-02T02:02:08.849Z,91.30
2023-02-02T02:04:35.894Z,91.80
2023-02-02T02:07:04.738Z,91.90
2023-02-02T02:09:31.611Z,92.00
2023-02-02T02:11:58.366Z,91.90
2023-02-02T02:14:44.027Z,91.60
2023-02-02T02:17:14.434Z,91.40
2023-02-02T02:20:33.930Z,91.30
2023-02-02T02:23:58.940Z,92.10
2023-02-02T02:26:42.906Z,92.00
2023-02-02T02:29:49.630Z,92.10
2023-02-02T02:32:32.069Z,91.80
2023-02-02T02:35:20.115Z,91.30
2023-02-02T02:37:58.687Z,91.60
2023-02-02T02:40:46.132Z,92.20
2023-02-02T02:43:25.588Z,92.20
2023-02-02T02:45:52.881Z,92.50
2023-02-02T02:48:19.721Z,92.70
2023-02-02T02:50:46.557Z,92.60
2023-02-02T02:53:21.479Z,92.50
2023-02-02T02:56:09.956Z,92.40
2023-02-02T02:58:51.580Z,92.60
2023-02-02T03:01:25.583Z,92.40
2023-02-02T03:04:09.955Z,92.70
2023-02-02T03:06:44.956Z,92.60
2023-02-02T03:09:30.411Z,92.20
2023-02-02T03:11:57.604Z,92.00
2023-02-02T03:14:24.437Z,92.20
2023-02-02T03:16:54.847Z,91.80
2023-02-02T03:19:21.771Z,91.60
2023-02-02T03:21:48.539Z,91.50
2023-02-02T03:24:15.286Z,91.90
2023-02-02T03:26:42.171Z,91.80
2023-02-02T03:29:09.029Z,91.80
2023-02-02T03:31:35.985Z,91.80
2023-02-02T03:34:03.017Z,91.70
2023-02-02T03:36:33.833Z,91.90
2023-02-02T03:39:00.605Z,91.90
2023-02-02T03:41:27.370Z,92.50
2023-02-02T03:43:54.217Z,92.70
2023-02-02T03:46:21.151Z,92.20
2023-02-02T03:48:47.932Z,92.30
2023-02-02T03:51:15.353Z,92.70
2023-02-02T03:53:47.547Z,92.60
2023-02-02T03:56:15.548Z,92.80
2023-02-02T03:58:45.183Z,92.90
2023-02-02T04:01:13.821Z,93.00
2023-02-02T04:03:40.704Z,93.10
2023-02-02T04:06:10.286Z,93.30
2023-02-02T04:08:39.760Z,93.10
2023-02-02T04:11:10.537Z,92.50
2023-02-02T04:13:39.585Z,92.50
2023-02-02T04:16:09.255Z,92.80
2023-02-02T04:18:38.155Z,92.60
2023-02-02T04:21:06.536Z,92.70
2023-02-02T04:23:33.790Z,92.60
2023-02-02T04:26:00.648Z,92.90
2023-02-02T04:28:31.031Z,93.10
2023-02-02T04:30:57.975Z,93.30
2023-02-02T04:33:26.436Z,92.70
2023-02-02T04:35:53.229Z,92.70
2023-02-02T04:38:22.610Z,92.90
2023-02-02T04:40:49.862Z,92.40
2023-02-02T04:43:17.018Z,92.30
2023-02-02T04:45:44.005Z,92.70
2023-02-02T04:48:11.238Z,93.00
2023-02-02T04:50:40.679Z,93.40
2023-02-02T04:53:09.662Z,94.20
2023-02-02T04:55:45.335Z,94.50
2023-02-02T04:58:16.180Z,95.90
2023-02-02T05:00:42.976Z,97.00
2023-02-02T05:03:11.871Z,97.10
2023-02-02T05:05:38.677Z,98.20
2023-02-02T05:08:05.495Z,98.80
2023-02-02T05:10:32.260Z,99.30
2023-02-02T05:12:59.010Z,99.90
2023-02-02T05:15:28.296Z,99.90
2023-02-02T05:17:55.060Z,99.90
2023-02-02T05:20:21.870Z,99.90
2023-02-02T05:22:53.295Z,99.90
2023-02-02T05:25:30.839Z,99.90
2023-02-02T05:27:57.712Z,99.90
2023-02-02T05:30:27.200Z,99.90
2023-02-02T05:32:53.984Z,99.90
2023-02-02T05:35:22.185Z,99.90
2023-02-02T05:37:49.127Z,99.90
2023-02-02T05:40:18.524Z,99.90
2023-02-02T05:42:48.705Z,99.90
2023-02-02T05:45:15.947Z,99.90
2023-02-02T05:47:42.767Z,99.90
2023-02-02T05:50:10.127Z,99.90
2023-02-02T05:52:39.733Z,99.90
2023-02-02T05:55:06.905Z,99.90
2023-02-02T05:57:33.708Z,99.90
2023-02-02T06:00:00.580Z,99.90
2023-02-02T06:02:29.972Z,99.90
2023-02-02T06:04:56.756Z,99.90
2023-02-02T06:07:23.561Z,99.90
2023-02-02T06:09:52.603Z,99.90
2023-02-02T06:12:19.548Z,99.90
2023-02-02T06:14:46.320Z,99.90
2023-02-02T06:17:13.070Z,99.90
2023-02-02T06:19:39.848Z,99.90
2023-02-02T06:22:07.336Z,99.90
2023-02-02T06:24:34.109Z,99.90
2023-02-02T06:27:00.872Z,99.90
2023-02-02T06:29:27.691Z,99.90
2023-02-02T06:31:54.556Z,99.90
2023-02-02T06:34:23.545Z,99.90
2023-02-02T06:36:50.342Z,99.90
2023-02-02T06:39:17.257Z,99.90
2023-02-02T06:41:49.099Z,99.90
2023-02-02T06:44:18.564Z,99.90
2023-02-02T06:46:45.405Z,99.90
2023-02-02T06:49:12.195Z,99.90
2023-02-02T06:51:39.500Z,99.90
2023-02-02T06:54:09.354Z,99.90
2023-02-02T06:56:36.148Z,99.90
2023-02-02T06:59:05.651Z,99.90
2023-02-02T07:01:32.675Z,99.90
2023-02-02T07:03:59.471Z,99.90
2023-02-02T07:06:31.610Z,99.90
2023-02-02T07:09:02.786Z,99.90
2023-02-02T07:11:37.587Z,99.90
2023-02-02T07:14:06.426Z,99.90
2023-02-02T07:16:33.254Z,99.90
2023-02-02T07:19:00.087Z,99.90
2023-02-02T07:21:37.600Z,99.90
2023-02-02T07:24:05.831Z,99.90
2023-02-02T07:26:36.135Z,99.90
2023-02-02T07:29:04.684Z,99.90
2023-02-02T07:31:34.091Z,99.90
2023-02-02T07:34:02.410Z,99.90
2023-02-02T07:36:29.195Z,99.90
2023-02-02T07:38:57.557Z,99.90
2023-02-02T07:41:25.131Z,99.90
2023-02-02T07:43:52.117Z,99.90
2023-02-02T07:46:20.361Z,99.90
2023-02-02T07:48:47.734Z,99.90
2023-02-02T07:51:20.763Z,99.90
2023-02-02T07:53:50.408Z,99.90
2023-02-02T07:56:19.743Z,99.90
2023-02-02T07:58:54.790Z,99.90
2023-02-02T08:01:26.941Z,99.90
2023-02-02T08:03:57.901Z,99.90
2023-02-02T08:06:32.229Z,99.90
2023-02-02T08:09:00.547Z,99.90
2023-02-02T08:11:34.334Z,99.90
2023-02-02T08:14:04.385Z,99.90
2023-02-02T08:16:34.865Z,99.90
2023-02-02T08:19:01.888Z,99.90
2023-02-02T08:21:33.294Z,99.90
2023-02-02T08:24:00.103Z,99.90
2023-02-02T08:26:31.560Z,99.90
2023-02-02T08:29:01.660Z,99.90
2023-02-02T08:31:35.298Z,99.90
2023-02-02T08:34:02.794Z,99.90
2023-02-02T08:36:30.850Z,99.90
2023-02-02T08:39:03.060Z,99.90
2023-02-02T08:41:30.596Z,99.90
2023-02-02T08:43:57.472Z,99.90
2023-02-02T08:46:25.024Z,99.90
2023-02-02T08:48:51.919Z,99.90
2023-02-02T08:51:20.182Z,99.90
2023-02-02T08:53:48.647Z,99.90
2023-02-02T08:56:18.859Z,99.90
2023-02-02T08:58:48.263Z,99.90
2023-02-02T09:01:17.759Z,99.90
2023-02-02T09:03:45.055Z,99.90
2023-02-02T09:06:16.956Z,99.90
2023-02-02T09:08:46.938Z,99.90
2023-02-02T09:11:18.935Z,99.90
2023-02-02T09:13:48.726Z,99.90
2023-02-02T09:16:17.852Z,99.90
2023-02-02T09:18:45.600Z,99.90
2023-02-02T09:21:14.584Z,99.90
2023-02-02T09:23:43.328Z,99.90
2023-02-02T09:26:15.880Z,99.90
2023-02-02T09:28:45.324Z,99.90
2023-02-02T09:31:12.517Z,99.90
2023-02-02T09:33:40.711Z,99.90
2023-02-02T09:36:22.771Z,99.90
2023-02-02T09:38:51.145Z,99.90
2023-02-02T09:41:26.840Z,99.90
2023-02-02T09:44:12.650Z,99.90
2023-02-02T09:47:08.695Z,99.90
2023-02-02T09:49:57.883Z,99.90
2023-02-02T09:52:41.677Z,99.90
2023-02-02T09:55:29.467Z,99.90
2023-02-02T09:58:03.405Z,99.90
2023-02-02T10:00:37.705Z,99.90
2023-02-02T10:03:16.754Z,99.90
2023-02-02T10:05:56.142Z,99.90
2023-02-02T10:08:35.926Z,99.90
2023-02-02T10:11:26.110Z,99.90
2023-02-02T10:13:57.888Z,99.90
2023-02-02T10:16:25.003Z,99.90
2023-02-02T10:19:06.227Z,99.90
2023-02-02T10:21:46.326Z,99.90
2023-02-02T10:24:23.359Z,99.90
2023-02-02T10:26:54.168Z,99.90
2023-02-02T10:29:49.233Z,99.90
2023-02-02T10:32:24.412Z,99.90
2023-02-02T10:35:16.164Z,99.90
2023-02-02T10:37:45.670Z,99.90
2023-02-02T10:40:24.839Z,99.90
2023-02-02T10:43:31.759Z,99.90
2023-02-02T10:46:00.416Z,99.90
2023-02-02T10:48:35.624Z,99.90
2023-02-02T10:51:12.816Z,99.90
2023-02-02T10:53:40.219Z,99.90
2023-02-02T10:56:11.803Z,99.90
2023-02-02T10:59:05.872Z,99.90
2023-02-02T11:01:34.159Z,99.90
2023-02-02T11:04:19.564Z,99.90
2023-02-02T11:06:56.506Z,99.90
2023-02-02T11:09:38.551Z,99.90
2023-02-02T11:12:28.655Z,99.90
2023-02-02T11:15:05.269Z,99.90
2023-02-02T11:17:33.325Z,99.90
2023-02-02T11:20:01.921Z,99.90
2023-02-02T11:22:40.328Z,99.90
2023-02-02T11:25:08.393Z,99.90
2023-02-02T11:27:43.249Z,99.90
2023-02-02T11:30:35.878Z,99.90
2023-02-02T11:33:29.056Z,99.90
2023-02-02T11:36:17.339Z,99.90
2023-02-02T11:38:46.248Z,99.90
2023-02-02T11:41:17.075Z,99.90
2023-02-02T11:43:54.551Z,99.90
2023-02-02T11:46:29.140Z,99.90
2023-02-02T11:49:03.284Z,99.90
2023-02-02T11:51:31.640Z,99.90
2023-02-02T11:54:06.569Z,99.90
2023-02-02T11:56:38.976Z,99.90
2023-02-02T11:59:08.661Z,99.90
2023-02-02T12:01:42.907Z,99.90
2023-02-02T12:04:26.513Z,99.90
2023-02-02T12:06:53.388Z,99.90
2023-02-02T12:09:24.640Z,99.90
2023-02-02T12:11:57.292Z,99.90
2023-02-02T12:14:50.496Z,99.90
2023-02-02T12:17:42.581Z,99.90
2023-02-02T12:20:41.447Z,99.90
2023-02-02T12:23:39.110Z,99.90
2023-02-02T12:26:17.800Z,99.90
2023-02-02T12:28:58.748Z,99.90
2023-02-02T12:31:42.875Z,99.90
2023-02-02T12:34:57.089Z,99.90
2023-02-02T12:37:45.328Z,99.90
2023-02-02T12:40:44.692Z,99.90
2023-02-02T12:43:42.176Z,99.90
2023-02-02T12:46:38.307Z,99.90
2023-02-02T12:49:23.002Z,99.90
2023-02-02T12:52:21.598Z,99.90
2023-02-02T12:55:25.065Z,99.90
2023-02-02T12:58:33.260Z,99.90
2023-02-02T13:01:41.479Z,99.90
2023-02-02T13:04:21.281Z,99.90
2023-02-02T13:06:52.817Z,99.90
2023-02-02T13:09:45.315Z,99.90
2023-02-02T13:12:14.614Z,99.90
2023-02-02T13:14:50.659Z,99.90
2023-02-02T13:17:39.081Z,99.90
2023-02-02T13:20:18.390Z,99.90
2023-02-02T13:22:47.938Z,99.90
2023-02-02T13:25:28.873Z,99.90
2023-02-02T13:27:58.037Z,99.90
2023-02-02T13:30:30.653Z,99.90
2023-02-02T13:33:01.298Z,99.90
2023-02-02T13:36:05.900Z,99.90
2023-02-02T13:38:39.266Z,99.90
2023-02-02T13:41:09.871Z,99.90
2023-02-02T13:43:55.716Z,99.90
2023-02-02T13:46:40.976Z,99.90
2023-02-02T13:49:19.136Z,99.90
2023-02-02T13:51:56.264Z,99.90
2023-02-02T13:54:42.507Z,99.90
2023-02-02T13:57:54.165Z,99.90
2023-02-02T14:00:34.137Z,99.90
2023-02-02T14:03:05.990Z,99.90
2023-02-02T14:05:38.930Z,99.90
2023-02-02T14:08:18.720Z,99.90
2023-02-02T14:10:54.541Z,99.90
2023-02-02T14:13:56.526Z,99.90
2023-02-02T14:16:47.835Z,99.90
2023-02-02T14:19:20.422Z,99.90
2023-02-02T14:22:02.539Z,99.90
2023-02-02T14:24:31.832Z,99.90
2023-02-02T14:27:22.649Z,99.90
2023-02-02T14:29:50.699Z,99.90
2023-02-02T14:32:29.588Z,99.90
2023-02-02T14:35:00.598Z,99.90
2023-02-02T14:37:27.851Z,99.90
2023-02-02T14:40:39.285Z,99.90
2023-02-02T14:43:42.529Z,99.90
2023-02-02T14:46:15.248Z,99.90
2023-02-02T14:48:43.123Z,99.90
2023-02-02T14:51:22.165Z,99.90
2023-02-02T14:54:02.332Z,99.90
2023-02-02T14:56:50.856Z,99.90
2023-02-02T14:59:22.049Z,99.90
2023-02-02T15:02:22.143Z,99.90
2023-02-02T15:04:49.488Z,99.90
2023-02-02T15:07:51.905Z,99.90
2023-02-02T15:10:47.401Z,99.90
2023-02-02T15:13:16.945Z,99.90
2023-02-02T15:15:45.258Z,99.90
2023-02-02T15:18:33.496Z,99.90
2023-02-02T15:21:06.713Z,99.90
2023-02-02T15:23:44.553Z,99.90
2023-02-02T15:26:17.840Z,99.90
2023-02-02T15:29:08.382Z,99.90
2023-02-02T15:31:45.324Z,99.90
2023-02-02T15:34:24.705Z,99.90
2023-02-02T15:37:00.046Z,99.90
2023-02-02T15:39:45.479Z,99.90
2023-02-02T15:42:39.473Z,99.90
2023-02-02T15:45:08.384Z,99.90
2023-02-02T15:47:40.618Z,99.90
2023-02-02T15:50:21.673Z,99.90
2023-02-02T15:52:50.692Z,99.90
2023-02-02T15:55:30.074Z,99.90
2023-02-02T15:57:56.904Z,99.90
2023-02-02T16:00:36.922Z,99.90
2023-02-02T16:03:23.074Z,99.90
2023-02-02T16:06:00.980Z,99.90
2023-02-02T16:08:34.279Z,99.90
2023-02-02T16:11:09.390Z,99.90
2023-02-02T16:13:37.261Z,99.90
2023-02-02T16:16:34.063Z,99.90
2023-02-02T16:19:18.600Z,99.90
2023-02-02T16:21:47.804Z,99.90
2023-02-02T16:24:36.959Z,99.90
2023-02-02T16:27:07.656Z,99.90
2023-02-02T16:29:35.271Z,99.90
2023-02-02T16:32:02.213Z,99.90
2023-02-02T16:34:41.098Z,99.90
2023-02-02T16:37:22.645Z,99.90
2023-02-02T16:39:52.273Z,99.90
2023-02-02T16:42:31.721Z,99.90
2023-02-02T16:45:00.058Z,99.90
2023-02-02T16:47:26.817Z,99.90
2023-02-02T16:50:09.972Z,99.90
2023-02-02T16:52:55.327Z,99.90
2023-02-02T16:55:23.828Z,99.90
2023-02-02T16:57:51.775Z,99.90
2023-02-02T17:00:25.946Z,99.90
2023-02-02T17:03:20.176Z,99.90
2023-02-02T17:05:53.585Z,99.90
2023-02-02T17:08:33.352Z,99.90
2023-02-02T17:11:10.746Z,99.90
2023-02-02T17:13:40.245Z,99.90
2023-02-02T17:16:13.202Z,99.90
2023-02-02T17:18:40.348Z,99.90
2023-02-02T17:21:07.765Z,99.90
2023-02-02T17:23:36.540Z,99.90
2023-02-02T17:26:06.806Z,99.90
2023-02-02T17:28:36.435Z,99.90
2023-02-02T17:31:07.789Z,99.90
2023-02-02T17:33:37.210Z,99.90
2023-02-02T17:36:04.909Z,99.90
2023-02-02T17:38:32.762Z,99.90
2023-02-02T17:41:01.962Z,99.90
2023-02-02T17:43:32.237Z,99.90
2023-02-02T17:45:59.479Z,99.90
2023-02-02T17:48:26.387Z,99.90
2023-02-02T17:50:53.186Z,99.90
2023-02-02T17:53:22.172Z,99.90
2023-02-02T17:55:50.181Z,99.90
2023-02-02T17:58:18.022Z,99.90
2023-02-02T18:00:47.852Z,99.90
2023-02-02T18:03:25.361Z,99.90
2023-02-02T18:05:52.481Z,99.90
2023-02-02T18:08:19.265Z,99.90
2023-02-02T18:10:46.189Z,99.90
2023-02-02T18:13:17.622Z,99.90
2023-02-02T18:15:44.495Z,99.90
2023-02-02T18:18:12.552Z,99.90
2023-02-02T18:20:43.422Z,99.90
2023-02-02T18:23:11.209Z,99.90
2023-02-02T18:25:39.346Z,99.90
2023-02-02T18:28:09.583Z,99.90
2023-02-02T18:30:40.456Z,99.90
2023-02-02T18:33:11.265Z,99.90
2023-02-02T18:35:42.555Z,99.90
2023-02-02T18:38:10.446Z,99.90
2023-02-02T18:40:37.984Z,99.90
2023-02-02T18:43:06.138Z,99.90
2023-02-02T18:45:33.060Z,99.90
2023-02-02T18:47:59.851Z,99.90
2023-02-02T18:50:26.712Z,99.90
2023-02-02T18:52:53.642Z,99.90
2023-02-02T18:55:20.737Z,99.90
2023-02-02T18:57:47.632Z,99.90
2023-02-02T19:00:14.821Z,99.90
2023-02-02T19:02:41.579Z,99.90
2023-02-02T19:05:27.104Z,99.90
2023-02-02T19:07:59.294Z,99.90
2023-02-02T19:10:27.438Z,99.90
2023-02-02T19:12:56.224Z,99.90
2023-02-02T19:15:27.353Z,99.90
2023-02-02T19:17:55.408Z,99.90
2023-02-02T19:20:26.586Z,99.90
2023-02-02T19:23:09.725Z,99.90
2023-02-02T19:25:36.509Z,99.90
2023-02-02T19:28:29.497Z,99.90
2023-02-02T19:30:58.382Z,99.90
2023-02-02T19:33:39.389Z,99.90
2023-02-02T19:36:13.579Z,99.90
2023-02-02T19:38:40.616Z,99.90
2023-02-02T19:41:25.415Z,99.90
2023-02-02T19:43:58.435Z,99.90
2023-02-02T19:46:27.345Z,99.90
2023-02-02T19:49:04.161Z,99.90
2023-02-02T19:51:45.550Z,99.90
2023-02-02T19:54:27.269Z,99.90
2023-02-02T19:56:56.949Z,99.90
2023-02-02T19:59:28.346Z,99.90
2023-02-02T20:01:55.983Z,99.90
2023-02-02T20:04:23.382Z,99.90
2023-02-02T20:06:59.130Z,99.90
2023-02-02T20:09:29.897Z,99.90
2023-02-02T20:11:57.378Z,99.90
2023-02-02T20:14:31.929Z,99.90
2023-02-02T20:17:15.536Z,99.90
2023-02-02T20:19:45.837Z,99.90
2023-02-02T20:22:31.826Z,99.90
2023-02-02T20:25:05.565Z,99.90
2023-02-02T20:27:34.032Z,99.90
2023-02-02T20:30:25.634Z,99.90
2023-02-02T20:32:58.629Z,99.90
2023-02-02T20:35:42.785Z,99.90
2023-02-02T20:38:35.984Z,99.90
2023-02-02T20:41:07.216Z,99.90
2023-02-02T20:43:35.801Z,99.90
2023-02-02T20:46:04.555Z,99.90
2023-02-02T20:48:31.332Z,99.90
2023-02-02T20:50:58.108Z,99.90
2023-02-02T20:53:24.979Z,99.90
2023-02-02T20:55:58.970Z,99.90
2023-02-02T20:58:26.140Z,99.90
2023-02-02T21:00:54.228Z,99.90
2023-02-02T21:03:21.045Z,99.90
2023-02-02T21:05:50.329Z,99.90
2023-02-02T21:08:17.132Z,99.90
2023-02-02T21:10:45.352Z,99.90
2023-02-02T21:13:12.268Z,99.90
2023-02-02T21:15:39.079Z,99.90
2023-02-02T21:18:05.833Z,99.90
2023-02-02T21:20:32.925Z,99.90
2023-02-02T21:22:59.665Z,99.90
2023-02-02T21:25:26.595Z,99.90
2023-02-02T21:27:54.395Z,99.90
2023-02-02T21:30:21.351Z,99.90
2023-02-02T21:32:48.148Z,99.90
2023-02-02T21:35:15.617Z,99.90
2023-02-02T21:37:44.220Z,99.90
2023-02-02T21:40:29.846Z,99.90
2023-02-02T21:42:59.499Z,99.90
2023-02-02T21:45:39.400Z,99.90
2023-02-02T21:48:19.933Z,99.90
2023-02-02T21:50:51.387Z,99.90
2023-02-02T21:53:23.875Z,99.90
2023-02-02T21:55:59.812Z,99.90
2023-02-02T21:58:34.249Z,99.90
2023-02-02T22:01:21.926Z,99.90
2023-02-02T22:03:50.350Z,99.90
2023-02-02T22:06:25.755Z,99.90
2023-02-02T22:09:01.144Z,99.90
2023-02-02T22:11:41.915Z,99.90
2023-02-02T22:14:33.267Z,99.90
2023-02-02T22:17:00.715Z,99.90
2023-02-02T22:19:39.879Z,99.90
2023-02-02T22:22:09.629Z,99.90
2023-02-02T22:24:36.784Z,99.90
2023-02-02T22:27:03.730Z,99.90
2023-02-02T22:29:35.182Z,99.90
2023-02-02T22:32:02.040Z,99.90
2023-02-02T22:34:28.848Z,99.90
2023-02-02T22:36:56.594Z,99.90
2023-02-02T22:39:23.357Z,99.90
2023-02-02T22:41:50.117Z,99.90
2023-02-02T22:44:19.322Z,99.90
2023-02-02T22:46:46.099Z,99.90
2023-02-02T22:49:12.893Z,99.90
2023-02-02T22:51:39.806Z,99.90
2023-02-02T22:54:06.591Z,99.90
2023-02-02T22:56:34.966Z,99.90
2023-02-02T22:59:03.486Z,99.90
2023-02-02T23:01:30.276Z,99.90
2023-02-02T23:03:57.337Z,99.90
2023-02-02T23:06:24.101Z,99.90
2023-02-02T23:08:50.854Z,99.90
2023-02-02T23:11:17.802Z,99.90
2023-02-02T23:13:44.557Z,99.90
2023-02-02T23:16:11.484Z,99.90
2023-02-02T23:18:38.279Z,99.90
2023-02-02T23:21:05.226Z,99.90
2023-02-02T23:23:31.971Z,99.90
2023-02-02T23:25:58.710Z,99.90
2023-02-02T23:28:25.700Z,99.90
2023-02-02T23:30:54.634Z,99.90
2023-02-02T23:33:21.637Z,99.90
2023-02-02T23:35:48.420Z,99.90
2023-02-02T23:38:15.447Z,99.90
2023-02-02T23:40:44.888Z,99.90
2023-02-02T23:43:12.704Z,99.90
2023-02-02T23:45:39.720Z,99.90
2023-02-02T23:48:07.865Z,99.90
2023-02-02T23:50:38.527Z,99.90
2023-02-02T23:53:07.216Z,99.90
2023-02-02T23:55:36.345Z,99.90
2023-02-02T23:58:03.443Z,99.90
